sensor_id;sensor_type;location;lat;lon;timestamp;pressure;altitude;pressure_sealevel;temperature;humidity
15914;BME280;8055;51.930;8.840;2023-03-03T00:01:29;77902.75;;;-145.72;100.00
15914;BME280;8055;51.930;8.840;2023-03-03T00:03:56;77892.41;;;-145.72;100.00
15914;BME280;8055;51.930;8.840;2023-03-03T00:06:21;77890.34;;;-145.72;100.00
15914;BME280;8055;51.930;8.840;2023-03-03T00:08:48;77892.41;;;-145.72;100.00
15914;BME280;8055;51.930;8.840;2023-03-03T00:11:13;77892.41;;;-145.72;100.00
15914;BME280;8055;51.930;8.840;2023-03-03T00:13:51;77882.06;;;-145.72;100.00
15914;BME280;8055;51.930;8.840;2023-03-03T00:16:36;77886.19;;;-145.72;100.00
15914;BME280;8055;51.930;8.840;2023-03-03T00:19:02;77888.28;;;-145.72;100.00
15914;BME280;8055;51.930;8.840;2023-03-03T00:21:40;77894.47;;;-145.72;100.00
15914;BME280;8055;51.930;8.840;2023-03-03T00:24:24;77902.75;;;-145.72;100.00
15914;BME280;8055;51.930;8.840;2023-03-03T00:26:50;77902.75;;;-145.72;100.00
15914;BME280;8055;51.930;8.840;2023-03-03T00:29:35;77906.91;;;-145.72;100.00
15914;BME280;8055;51.930;8.840;2023-03-03T00:34:36;77906.91;;;-145.72;100.00
15914;BME280;8055;51.930;8.840;2023-03-03T00:37:02;77904.84;;;-145.72;100.00
15914;BME280;8055;51.930;8.840;2023-03-03T00:39:37;77915.19;;;-145.72;100.00
15914;BME280;8055;51.930;8.840;2023-03-03T00:42:13;77906.91;;;-145.72;100.00
15914;BME280;8055;51.930;8.840;2023-03-03T00:44:58;77900.69;;;-145.72;100.00
15914;BME280;8055;51.930;8.840;2023-03-03T00:47:37;77906.91;;;-145.72;100.00
15914;BME280;8055;51.930;8.840;2023-03-03T00:52:33;77890.34;;;-145.72;100.00
15914;BME280;8055;51.930;8.840;2023-03-03T00:54:59;77902.75;;;-145.72;100.00
15914;BME280;8055;51.930;8.840;2023-03-03T00:57:24;77902.75;;;-145.72;100.00
15914;BME280;8055;51.930;8.840;2023-03-03T00:59:50;77911.03;;;-145.72;100.00
15914;BME280;8055;51.930;8.840;2023-03-03T01:02:15;77913.13;;;-145.72;100.00
15914;BME280;8055;51.930;8.840;2023-03-03T01:04:43;77915.19;;;-145.72;100.00
15914;BME280;8055;51.930;8.840;2023-03-03T01:07:12;77931.75;;;-145.72;100.00
15914;BME280;8055;51.930;8.840;2023-03-03T01:09:37;77929.69;;;-145.72;100.00
15914;BME280;8055;51.930;8.840;2023-03-03T01:12:03;77931.75;;;-145.72;100.00
15914;BME280;8055;51.930;8.840;2023-03-03T01:14:28;77929.69;;;-145.72;100.00
15914;BME280;8055;51.930;8.840;2023-03-03T01:16:53;77929.69;;;-145.72;100.00
15914;BME280;8055;51.930;8.840;2023-03-03T01:19:19;77925.53;;;-145.72;100.00
15914;BME280;8055;51.930;8.840;2023-03-03T01:21:44;77917.25;;;-145.72;100.00
15914;BME280;8055;51.930;8.840;2023-03-03T01:24:10;77921.41;;;-145.72;100.00
15914;BME280;8055;51.930;8.840;2023-03-03T01:26:35;77919.31;;;-145.72;100.00
15914;BME280;8055;51.930;8.840;2023-03-03T01:29:00;77935.91;;;-145.72;100.00
15914;BME280;8055;51.930;8.840;2023-03-03T01:31:26;77933.81;;;-145.72;100.00
15914;BME280;8055;51.930;8.840;2023-03-03T01:33:51;77931.75;;;-145.72;100.00
15914;BME280;8055;51.930;8.840;2023-03-03T01:36:25;77933.81;;;-145.72;100.00
15914;BME280;8055;51.930;8.840;2023-03-03T01:38:51;77931.75;;;-145.72;100.00
15914;BME280;8055;51.930;8.840;2023-03-03T01:41:17;77940.03;;;-145.72;100.00
15914;BME280;8055;51.930;8.840;2023-03-03T01:43:45;77948.31;;;-145.72;100.00
15914;BME280;8055;51.930;8.840;2023-03-03T01:48:48;77946.25;;;-145.72;100.00
15914;BME280;8055;51.930;8.840;2023-03-03T01:51:23;77940.03;;;-145.72;100.00
15914;BME280;8055;51.930;8.840;2023-03-03T01:53:52;77952.44;;;-145.72;100.00
15914;BME280;8055;51.930;8.840;2023-03-03T01:56:19;77954.53;;;-145.72;100.00
15914;BME280;8055;51.930;8.840;2023-03-03T01:58:50;77958.66;;;-145.72;100.00
15914;BME280;8055;51.930;8.840;2023-03-03T02:01:22;77958.66;;;-145.72;100.00
15914;BME280;8055;51.930;8.840;2023-03-03T02:03:49;77950.38;;;-145.72;100.00
15914;BME280;8055;51.930;8.840;2023-03-03T02:06:19;77948.31;;;-145.72;100.00
15914;BME280;8055;51.930;8.840;2023-03-03T02:08:58;77940.03;;;-145.72;100.00
15914;BME280;8055;51.930;8.840;2023-03-03T02:11:25;77946.25;;;-145.72;100.00
15914;BME280;8055;51.930;8.840;2023-03-03T02:13:51;77940.03;;;-145.72;100.00
15914;BME280;8055;51.930;8.840;2023-03-03T02:16:17;77946.25;;;-145.72;100.00
15914;BME280;8055;51.930;8.840;2023-03-03T02:18:43;77942.09;;;-145.72;100.00
15914;BME280;8055;51.930;8.840;2023-03-03T02:21:20;77937.97;;;-145.72;100.00
15914;BME280;8055;51.930;8.840;2023-03-03T02:24:13;77933.81;;;-145.72;100.00
15914;BME280;8055;51.930;8.840;2023-03-03T02:26:40;77942.09;;;-145.72;100.00
15914;BME280;8055;51.930;8.840;2023-03-03T02:29:07;77946.25;;;-145.72;100.00
15914;BME280;8055;51.930;8.840;2023-03-03T02:31:33;77940.03;;;-145.72;100.00
15914;BME280;8055;51.930;8.840;2023-03-03T02:33:59;77937.97;;;-145.72;100.00
15914;BME280;8055;51.930;8.840;2023-03-03T02:36:27;77933.81;;;-145.72;100.00
15914;BME280;8055;51.930;8.840;2023-03-03T02:41:34;77923.47;;;-145.72;100.00
15914;BME280;8055;51.930;8.840;2023-03-03T02:44:05;77933.81;;;-145.72;100.00
15914;BME280;8055;51.930;8.840;2023-03-03T02:46:39;77933.81;;;-145.72;100.00
15914;BME280;8055;51.930;8.840;2023-03-03T02:49:07;77927.59;;;-145.72;100.00
15914;BME280;8055;51.930;8.840;2023-03-03T02:51:34;77933.81;;;-145.72;100.00
15914;BME280;8055;51.930;8.840;2023-03-03T02:53:59;77946.25;;;-145.72;100.00
15914;BME280;8055;51.930;8.840;2023-03-03T02:56:25;77940.03;;;-145.72;100.00
15914;BME280;8055;51.930;8.840;2023-03-03T02:58:50;77948.31;;;-145.72;100.00
15914;BME280;8055;51.930;8.840;2023-03-03T03:01:16;77937.97;;;-145.72;100.00
15914;BME280;8055;51.930;8.840;2023-03-03T03:03:41;77940.03;;;-145.72;100.00
15914;BME280;8055;51.930;8.840;2023-03-03T03:06:07;77942.09;;;-145.72;100.00
15914;BME280;8055;51.930;8.840;2023-03-03T03:08:32;77944.16;;;-145.72;100.00
15914;BME280;8055;51.930;8.840;2023-03-03T03:10:58;77954.53;;;-145.72;100.00
15914;BME280;8055;51.930;8.840;2023-03-03T03:13:24;77948.31;;;-145.72;100.00
15914;BME280;8055;51.930;8.840;2023-03-03T03:15:50;77948.31;;;-145.72;100.00
15914;BME280;8055;51.930;8.840;2023-03-03T03:18:16;77956.59;;;-145.72;100.00
15914;BME280;8055;51.930;8.840;2023-03-03T03:20:42;77966.94;;;-145.72;100.00
15914;BME280;8055;51.930;8.840;2023-03-03T03:23:08;77962.81;;;-145.72;100.00
15914;BME280;8055;51.930;8.840;2023-03-03T03:25:34;77950.38;;;-145.72;100.00
15914;BME280;8055;51.930;8.840;2023-03-03T03:28:02;77946.25;;;-145.72;100.00
15914;BME280;8055;51.930;8.840;2023-03-03T03:30:27;77933.81;;;-145.72;100.00
15914;BME280;8055;51.930;8.840;2023-03-03T03:32:53;77937.97;;;-145.72;100.00
15914;BME280;8055;51.930;8.840;2023-03-03T03:35:18;77940.03;;;-145.72;100.00
15914;BME280;8055;51.930;8.840;2023-03-03T03:37:43;77935.91;;;-145.72;100.00
15914;BME280;8055;51.930;8.840;2023-03-03T03:40:10;77946.25;;;-145.72;100.00
15914;BME280;8055;51.930;8.840;2023-03-03T03:42:35;77946.25;;;-145.72;100.00
15914;BME280;8055;51.930;8.840;2023-03-03T03:45:03;77944.16;;;-145.72;100.00
15914;BME280;8055;51.930;8.840;2023-03-03T03:47:28;77940.03;;;-145.72;100.00
15914;BME280;8055;51.930;8.840;2023-03-03T03:49:53;77940.03;;;-145.72;100.00
15914;BME280;8055;51.930;8.840;2023-03-03T03:52:19;77952.44;;;-145.72;100.00
15914;BME280;8055;51.930;8.840;2023-03-03T03:54:44;77940.03;;;-145.72;100.00
15914;BME280;8055;51.930;8.840;2023-03-03T03:57:09;77937.97;;;-145.72;100.00
15914;BME280;8055;51.930;8.840;2023-03-03T03:59:35;77946.25;;;-145.72;100.00
15914;BME280;8055;51.930;8.840;2023-03-03T04:02:00;77946.25;;;-145.72;100.00
15914;BME280;8055;51.930;8.840;2023-03-03T04:04:25;77946.25;;;-145.72;100.00
15914;BME280;8055;51.930;8.840;2023-03-03T04:06:51;77954.53;;;-145.72;100.00
15914;BME280;8055;51.930;8.840;2023-03-03T04:09:16;77962.81;;;-145.72;100.00
15914;BME280;8055;51.930;8.840;2023-03-03T04:11:42;77960.72;;;-145.72;100.00
15914;BME280;8055;51.930;8.840;2023-03-03T04:14:07;77960.72;;;-145.72;100.00
15914;BME280;8055;51.930;8.840;2023-03-03T04:16:32;77960.72;;;-145.72;100.00
15914;BME280;8055;51.930;8.840;2023-03-03T04:18:58;77966.94;;;-145.72;100.00
15914;BME280;8055;51.930;8.840;2023-03-03T04:21:23;77969.03;;;-145.72;100.00
15914;BME280;8055;51.930;8.840;2023-03-03T04:23:49;77975.22;;;-145.72;100.00
15914;BME280;8055;51.930;8.840;2023-03-03T04:26:15;77985.59;;;-145.72;100.00
15914;BME280;8055;51.930;8.840;2023-03-03T04:28:40;77975.22;;;-145.72;100.00
15914;BME280;8055;51.930;8.840;2023-03-03T04:31:06;77975.22;;;-145.72;100.00
15914;BME280;8055;51.930;8.840;2023-03-03T04:33:31;77975.22;;;-145.72;100.00
15914;BME280;8055;51.930;8.840;2023-03-03T04:35:56;77979.38;;;-145.72;100.00
15914;BME280;8055;51.930;8.840;2023-03-03T04:38:22;77971.09;;;-145.72;100.00
15914;BME280;8055;51.930;8.840;2023-03-03T04:40:47;77985.59;;;-145.72;100.00
15914;BME280;8055;51.930;8.840;2023-03-03T04:43:13;77989.72;;;-145.72;100.00
15914;BME280;8055;51.930;8.840;2023-03-03T04:45:38;77989.72;;;-145.72;100.00
15914;BME280;8055;51.930;8.840;2023-03-03T04:48:04;77987.66;;;-145.72;100.00
15914;BME280;8055;51.930;8.840;2023-03-03T04:50:29;77983.50;;;-145.72;100.00
15914;BME280;8055;51.930;8.840;2023-03-03T04:52:55;77977.31;;;-145.72;100.00
15914;BME280;8055;51.930;8.840;2023-03-03T04:55:20;77985.59;;;-145.72;100.00
15914;BME280;8055;51.930;8.840;2023-03-03T04:57:46;77981.44;;;-145.72;100.00
15914;BME280;8055;51.930;8.840;2023-03-03T05:00:14;77998.00;;;-145.72;100.00
15914;BME280;8055;51.930;8.840;2023-03-03T05:02:41;77998.00;;;-145.72;100.00
15914;BME280;8055;51.930;8.840;2023-03-03T05:05:07;77998.00;;;-145.72;100.00
15914;BME280;8055;51.930;8.840;2023-03-03T05:07:34;78004.22;;;-145.72;100.00
15914;BME280;8055;51.930;8.840;2023-03-03T05:10:00;78000.06;;;-145.72;100.00
15914;BME280;8055;51.930;8.840;2023-03-03T05:12:26;78000.06;;;-145.72;100.00
15914;BME280;8055;51.930;8.840;2023-03-03T05:14:52;78004.22;;;-145.72;100.00
15914;BME280;8055;51.930;8.840;2023-03-03T05:17:17;78008.34;;;-145.72;100.00
15914;BME280;8055;51.930;8.840;2023-03-03T05:19:43;78018.72;;;-145.72;100.00
15914;BME280;8055;51.930;8.840;2023-03-03T05:22:08;78020.78;;;-145.72;100.00
15914;BME280;8055;51.930;8.840;2023-03-03T05:24:34;78018.72;;;-145.72;100.00
15914;BME280;8055;51.930;8.840;2023-03-03T05:26:59;78027.00;;;-145.72;100.00
15914;BME280;8055;51.930;8.840;2023-03-03T05:29:25;78031.13;;;-145.72;100.00
15914;BME280;8055;51.930;8.840;2023-03-03T05:31:50;78043.56;;;-145.72;100.00
15914;BME280;8055;51.930;8.840;2023-03-03T05:34:15;78041.47;;;-145.72;100.00
15914;BME280;8055;51.930;8.840;2023-03-03T05:36:41;78053.91;;;-145.72;100.00
15914;BME280;8055;51.930;8.840;2023-03-03T05:39:06;78049.75;;;-145.72;100.00
15914;BME280;8055;51.930;8.840;2023-03-03T05:41:32;78058.03;;;-145.72;100.00
15914;BME280;8055;51.930;8.840;2023-03-03T05:44:01;78062.19;;;-145.72;100.00
15914;BME280;8055;51.930;8.840;2023-03-03T05:46:26;78062.19;;;-145.72;100.00
15914;BME280;8055;51.930;8.840;2023-03-03T05:48:52;78064.25;;;-145.72;100.00
15914;BME280;8055;51.930;8.840;2023-03-03T05:51:17;78064.25;;;-145.72;100.00
15914;BME280;8055;51.930;8.840;2023-03-03T05:53:42;78072.53;;;-145.72;100.00
15914;BME280;8055;51.930;8.840;2023-03-03T05:56:08;78068.41;;;-145.72;100.00
15914;BME280;8055;51.930;8.840;2023-03-03T05:58:33;78066.31;;;-145.72;100.00
15914;BME280;8055;51.930;8.840;2023-03-03T06:00:58;78064.25;;;-145.72;100.00
15914;BME280;8055;51.930;8.840;2023-03-03T06:03:24;78066.31;;;-145.72;100.00
15914;BME280;8055;51.930;8.840;2023-03-03T06:05:49;78064.25;;;-145.72;100.00
15914;BME280;8055;51.930;8.840;2023-03-03T06:08:14;78068.41;;;-145.72;100.00
15914;BME280;8055;51.930;8.840;2023-03-03T06:10:40;78060.13;;;-145.72;100.00
15914;BME280;8055;51.930;8.840;2023-03-03T06:13:06;78055.97;;;-145.72;100.00
15914;BME280;8055;51.930;8.840;2023-03-03T06:15:31;78051.84;;;-145.72;100.00
15914;BME280;8055;51.930;8.840;2023-03-03T06:17:56;78047.69;;;-145.72;100.00
15914;BME280;8055;51.930;8.840;2023-03-03T06:20:22;78051.84;;;-145.72;100.00
15914;BME280;8055;51.930;8.840;2023-03-03T06:22:47;78043.56;;;-145.72;100.00
15914;BME280;8055;51.930;8.840;2023-03-03T06:25:12;78047.69;;;-145.72;100.00
15914;BME280;8055;51.930;8.840;2023-03-03T06:27:38;78039.41;;;-145.72;100.00
15914;BME280;8055;51.930;8.840;2023-03-03T06:30:04;78035.28;;;-145.72;100.00
15914;BME280;8055;51.930;8.840;2023-03-03T06:32:29;78031.13;;;-145.72;100.00
15914;BME280;8055;51.930;8.840;2023-03-03T06:34:55;78041.47;;;-145.72;100.00
15914;BME280;8055;51.930;8.840;2023-03-03T06:37:20;78051.84;;;-145.72;100.00
15914;BME280;8055;51.930;8.840;2023-03-03T06:39:46;78051.84;;;-145.72;100.00
15914;BME280;8055;51.930;8.840;2023-03-03T06:42:11;78047.69;;;-145.72;100.00
15914;BME280;8055;51.930;8.840;2023-03-03T06:44:36;78055.97;;;-145.72;100.00
15914;BME280;8055;51.930;8.840;2023-03-03T06:47:02;78053.91;;;-145.72;100.00
15914;BME280;8055;51.930;8.840;2023-03-03T06:49:28;78060.13;;;-145.72;100.00
15914;BME280;8055;51.930;8.840;2023-03-03T06:51:53;78062.19;;;-145.72;100.00
15914;BME280;8055;51.930;8.840;2023-03-03T06:54:21;78064.25;;;-145.72;100.00
15914;BME280;8055;51.930;8.840;2023-03-03T06:56:51;78066.31;;;-145.72;100.00
15914;BME280;8055;51.930;8.840;2023-03-03T06:59:20;78060.13;;;-145.72;100.00
15914;BME280;8055;51.930;8.840;2023-03-03T07:01:47;78066.31;;;-145.72;100.00
15914;BME280;8055;51.930;8.840;2023-03-03T07:04:28;78082.88;;;-145.72;100.00
15914;BME280;8055;51.930;8.840;2023-03-03T07:07:12;78082.88;;;-145.72;100.00
15914;BME280;8055;51.930;8.840;2023-03-03T07:09:39;78078.75;;;-145.72;100.00
15914;BME280;8055;51.930;8.840;2023-03-03T07:12:09;78080.81;;;-145.72;100.00
15914;BME280;8055;51.930;8.840;2023-03-03T07:14:41;78076.69;;;-145.72;100.00
15914;BME280;8055;51.930;8.840;2023-03-03T07:17:13;78082.88;;;-145.72;100.00
15914;BME280;8055;51.930;8.840;2023-03-03T07:19:39;78084.97;;;-145.72;100.00
15914;BME280;8055;51.930;8.840;2023-03-03T07:22:26;78101.53;;;-145.72;100.00
15914;BME280;8055;51.930;8.840;2023-03-03T07:24:54;78101.53;;;-145.72;100.00
15914;BME280;8055;51.930;8.840;2023-03-03T07:27:23;78099.44;;;-145.72;100.00
15914;BME280;8055;51.930;8.840;2023-03-03T07:29:52;78113.94;;;-145.72;100.00
15914;BME280;8055;51.930;8.840;2023-03-03T07:32:38;78116.00;;;-145.72;100.00
15914;BME280;8055;51.930;8.840;2023-03-03T07:37:59;78111.88;;;-145.72;100.00
15914;BME280;8055;51.930;8.840;2023-03-03T07:40:37;78105.66;;;-145.72;100.00
15914;BME280;8055;51.930;8.840;2023-03-03T07:43:37;78109.81;;;-145.72;100.00
15914;BME280;8055;51.930;8.840;2023-03-03T07:48:37;78113.94;;;-145.72;100.00
15914;BME280;8055;51.930;8.840;2023-03-03T07:51:12;78113.94;;;-145.72;100.00
15914;BME280;8055;51.930;8.840;2023-03-03T07:53:40;78109.81;;;-145.72;100.00
15914;BME280;8055;51.930;8.840;2023-03-03T07:56:28;78099.44;;;-145.72;100.00
15914;BME280;8055;51.930;8.840;2023-03-03T07:58:55;78097.38;;;-145.72;100.00
15914;BME280;8055;51.930;8.840;2023-03-03T08:01:40;78101.53;;;-145.72;100.00
15914;BME280;8055;51.930;8.840;2023-03-03T08:04:27;78097.38;;;-145.72;100.00
15914;BME280;8055;51.930;8.840;2023-03-03T08:06:58;78089.09;;;-145.72;100.00
15914;BME280;8055;51.930;8.840;2023-03-03T08:09:59;78087.03;;;-145.72;100.00
15914;BME280;8055;51.930;8.840;2023-03-03T08:12:30;78078.75;;;-145.72;100.00
15914;BME280;8055;51.930;8.840;2023-03-03T08:17:41;78076.69;;;-145.72;100.00
15914;BME280;8055;51.930;8.840;2023-03-03T08:22:58;78089.09;;;-145.72;100.00
15914;BME280;8055;51.930;8.840;2023-03-03T08:25:23;78087.03;;;-145.72;100.00
15914;BME280;8055;51.930;8.840;2023-03-03T08:27:49;78089.09;;;-145.72;100.00
15914;BME280;8055;51.930;8.840;2023-03-03T08:30:14;78082.88;;;-145.72;100.00
15914;BME280;8055;51.930;8.840;2023-03-03T08:32:39;78078.75;;;-145.72;100.00
15914;BME280;8055;51.930;8.840;2023-03-03T08:35:05;78080.81;;;-145.72;100.00
15914;BME280;8055;51.930;8.840;2023-03-03T08:37:31;78076.69;;;-145.72;100.00
15914;BME280;8055;51.930;8.840;2023-03-03T08:39:56;78072.53;;;-145.72;100.00
15914;BME280;8055;51.930;8.840;2023-03-03T08:42:21;78072.53;;;-145.72;100.00
15914;BME280;8055;51.930;8.840;2023-03-03T08:44:47;78068.41;;;-145.72;100.00
15914;BME280;8055;51.930;8.840;2023-03-03T08:47:12;78074.59;;;-145.72;100.00
15914;BME280;8055;51.930;8.840;2023-03-03T08:49:37;78074.59;;;-145.72;100.00
15914;BME280;8055;51.930;8.840;2023-03-03T08:52:04;78070.47;;;-145.72;100.00
15914;BME280;8055;51.930;8.840;2023-03-03T08:54:29;78070.47;;;-145.72;100.00
15914;BME280;8055;51.930;8.840;2023-03-03T08:56:55;78062.19;;;-145.72;100.00
15914;BME280;8055;51.930;8.840;2023-03-03T08:59:20;78058.03;;;-145.72;100.00
15914;BME280;8055;51.930;8.840;2023-03-03T09:01:46;78047.69;;;-145.72;100.00
15914;BME280;8055;51.930;8.840;2023-03-03T09:04:11;78043.56;;;-145.72;100.00
15914;BME280;8055;51.930;8.840;2023-03-03T09:06:37;78045.63;;;-145.72;100.00
15914;BME280;8055;51.930;8.840;2023-03-03T09:09:03;78041.47;;;-145.72;100.00
15914;BME280;8055;51.930;8.840;2023-03-03T09:11:29;78041.47;;;-145.72;100.00
15914;BME280;8055;51.930;8.840;2023-03-03T09:14:15;78024.91;;;-145.72;100.00
15914;BME280;8055;51.930;8.840;2023-03-03T09:16:49;78027.00;;;-145.72;100.00
15914;BME280;8055;51.930;8.840;2023-03-03T09:19:39;78027.00;;;-145.72;100.00
15914;BME280;8055;51.930;8.840;2023-03-03T09:22:20;78020.78;;;-145.72;100.00
15914;BME280;8055;51.930;8.840;2023-03-03T09:24:46;78014.56;;;-145.72;100.00
15914;BME280;8055;51.930;8.840;2023-03-03T09:27:27;78014.56;;;-145.72;100.00
15914;BME280;8055;51.930;8.840;2023-03-03T09:29:54;78014.56;;;-145.72;100.00
15914;BME280;8055;51.930;8.840;2023-03-03T09:32:37;78006.28;;;-145.72;100.00
15914;BME280;8055;51.930;8.840;2023-03-03T09:37:51;77991.78;;;-145.72;100.00
15914;BME280;8055;51.930;8.840;2023-03-03T09:40:50;77979.38;;;-145.72;100.00
15914;BME280;8055;51.930;8.840;2023-03-03T09:43:44;77948.31;;;-145.72;100.00
15914;BME280;8055;51.930;8.840;2023-03-03T09:49:34;77915.19;;;-145.72;100.00
15914;BME280;8055;51.930;8.840;2023-03-03T10:06:10;77846.88;;;-145.72;100.00
15914;BME280;8055;51.930;8.840;2023-03-03T10:08:53;77859.28;;;-145.72;100.00
15914;BME280;8055;51.930;8.840;2023-03-03T10:11:33;77877.91;;;-145.72;100.00
15914;BME280;8055;51.930;8.840;2023-03-03T10:14:10;77886.19;;;-145.72;100.00
15914;BME280;8055;51.930;8.840;2023-03-03T10:19:39;77925.53;;;-145.72;100.00
15914;BME280;8055;51.930;8.840;2023-03-03T10:24:56;77946.25;;;-145.72;100.00
15914;BME280;8055;51.930;8.840;2023-03-03T10:27:36;77931.75;;;-145.72;100.00
15914;BME280;8055;51.930;8.840;2023-03-03T10:35:37;77921.41;;;-145.72;100.00
15914;BME280;8055;51.930;8.840;2023-03-03T10:38:14;77906.91;;;-145.72;100.00
15914;BME280;8055;51.930;8.840;2023-03-03T10:45:48;77911.03;;;-145.72;100.00
15914;BME280;8055;51.930;8.840;2023-03-03T10:48:31;77894.47;;;-145.72;100.00
15914;BME280;8055;51.930;8.840;2023-03-03T10:53:45;77869.63;;;-145.72;100.00
15914;BME280;8055;51.930;8.840;2023-03-03T10:57:10;77859.28;;;-145.72;100.00
15914;BME280;8055;51.930;8.840;2023-03-03T11:02:06;77851.00;;;-145.72;100.00
15914;BME280;8055;51.930;8.840;2023-03-03T11:04:54;77877.91;;;-145.72;100.00
15914;BME280;8055;51.930;8.840;2023-03-03T11:07:34;77851.00;;;-145.72;100.00
15914;BME280;8055;51.930;8.840;2023-03-03T11:10:17;77851.00;;;-145.72;100.00
15914;BME280;8055;51.930;8.840;2023-03-03T11:16:17;77811.66;;;-145.72;100.00
15914;BME280;8055;51.930;8.840;2023-03-03T11:19:20;77799.25;;;-145.72;100.00
15914;BME280;8055;51.930;8.840;2023-03-03T11:22:17;77795.09;;;-145.72;100.00
15914;BME280;8055;51.930;8.840;2023-03-03T11:33:19;77790.97;;;-145.72;100.00
15914;BME280;8055;51.930;8.840;2023-03-03T11:38:57;77786.81;;;-145.72;100.00
15914;BME280;8055;51.930;8.840;2023-03-03T11:44:07;77751.63;;;-145.72;100.00
15914;BME280;8055;51.930;8.840;2023-03-03T11:49:38;77687.47;;;-145.72;100.00
15914;BME280;8055;51.930;8.840;2023-03-03T11:52:11;77689.53;;;-145.72;100.00
15914;BME280;8055;51.930;8.840;2023-03-03T11:57:38;77668.81;;;-145.72;100.00
15914;BME280;8055;51.930;8.840;2023-03-03T12:00:40;77681.25;;;-145.72;100.00
15914;BME280;8055;51.930;8.840;2023-03-03T12:03:44;77683.31;;;-145.72;100.00
15914;BME280;8055;51.930;8.840;2023-03-03T12:06:24;77664.69;;;-145.72;100.00
15914;BME280;8055;51.930;8.840;2023-03-03T12:09:00;77666.75;;;-145.72;100.00
15914;BME280;8055;51.930;8.840;2023-03-03T12:11:52;77683.31;;;-145.72;100.00
15914;BME280;8055;51.930;8.840;2023-03-03T12:14:38;77643.97;;;-145.72;100.00
15914;BME280;8055;51.930;8.840;2023-03-03T12:19:56;77643.97;;;-145.72;100.00
15914;BME280;8055;51.930;8.840;2023-03-03T12:25:38;77641.91;;;-145.72;100.00
15914;BME280;8055;51.930;8.840;2023-03-03T12:28:31;77650.19;;;-145.72;100.00
15914;BME280;8055;51.930;8.840;2023-03-03T12:36:04;77621.22;;;-145.72;100.00
15914;BME280;8055;51.930;8.840;2023-03-03T12:38:46;77594.31;;;-145.72;100.00
15914;BME280;8055;51.930;8.840;2023-03-03T12:44:05;77505.28;;;-145.72;100.00
15914;BME280;8055;51.930;8.840;2023-03-03T12:46:45;77451.47;;;-145.72;100.00
15914;BME280;8055;51.930;8.840;2023-03-03T12:49:16;77428.69;;;-145.72;100.00
15914;BME280;8055;51.930;8.840;2023-03-03T12:55:02;77321.03;;;-145.72;100.00
15914;BME280;8055;51.930;8.840;2023-03-03T12:57:44;77310.69;;;-145.72;100.00
15914;BME280;8055;51.930;8.840;2023-03-03T13:02:59;77321.03;;;-145.72;100.00
15914;BME280;8055;51.930;8.840;2023-03-03T13:05:48;77300.34;;;-145.72;100.00
15914;BME280;8055;51.930;8.840;2023-03-03T13:08:32;77325.19;;;-145.72;100.00
15914;BME280;8055;51.930;8.840;2023-03-03T13:11:28;77376.94;;;-145.72;100.00
15914;BME280;8055;51.930;8.840;2023-03-03T13:19:43;77385.22;;;-145.72;100.00
15914;BME280;8055;51.930;8.840;2023-03-03T13:22:23;77352.09;;;-145.72;100.00
15914;BME280;8055;51.930;8.840;2023-03-03T13:27:46;77368.66;;;-145.72;100.00
15914;BME280;8055;51.930;8.840;2023-03-03T13:30:19;77362.44;;;-145.72;100.00
15914;BME280;8055;51.930;8.840;2023-03-03T13:32:48;77399.72;;;-145.72;100.00
15914;BME280;8055;51.930;8.840;2023-03-03T13:35:27;77393.50;;;-145.72;100.00
15914;BME280;8055;51.930;8.840;2023-03-03T13:37:56;77399.72;;;-145.72;100.00
15914;BME280;8055;51.930;8.840;2023-03-03T13:40:27;77403.84;;;-145.72;100.00
15914;BME280;8055;51.930;8.840;2023-03-03T13:43:07;77422.47;;;-145.72;100.00
15914;BME280;8055;51.930;8.840;2023-03-03T14:01:53;77525.97;;;-145.72;100.00
15914;BME280;8055;51.930;8.840;2023-03-03T14:04:49;77528.06;;;-145.72;100.00
15914;BME280;8055;51.930;8.840;2023-03-03T14:07:21;77521.84;;;-145.72;100.00
15914;BME280;8055;51.930;8.840;2023-03-03T14:15:10;77523.91;;;-145.72;100.00
15914;BME280;8055;51.930;8.840;2023-03-03T14:17:50;77521.84;;;-145.72;100.00
15914;BME280;8055;51.930;8.840;2023-03-03T14:20:26;77525.97;;;-145.72;100.00
15914;BME280;8055;51.930;8.840;2023-03-03T14:22:57;77509.41;;;-145.72;100.00
15914;BME280;8055;51.930;8.840;2023-03-03T14:25:23;77509.41;;;-145.72;100.00
15914;BME280;8055;51.930;8.840;2023-03-03T14:35:43;77497.00;;;-145.72;100.00
15914;BME280;8055;51.930;8.840;2023-03-03T14:38:14;77478.38;;;-145.72;100.00
15914;BME280;8055;51.930;8.840;2023-03-03T14:40:42;77482.50;;;-145.72;100.00
15914;BME280;8055;51.930;8.840;2023-03-03T14:43:25;77459.75;;;-145.72;100.00
15914;BME280;8055;51.930;8.840;2023-03-03T14:45:52;77459.75;;;-145.72;100.00
15914;BME280;8055;51.930;8.840;2023-03-03T14:48:25;77449.38;;;-145.72;100.00
15914;BME280;8055;51.930;8.840;2023-03-03T14:50:59;77459.75;;;-145.72;100.00
15914;BME280;8055;51.930;8.840;2023-03-03T14:53:42;77455.59;;;-145.72;100.00
15914;BME280;8055;51.930;8.840;2023-03-03T14:56:27;77445.25;;;-145.72;100.00
15914;BME280;8055;51.930;8.840;2023-03-03T15:01:40;77439.03;;;-145.72;100.00
15914;BME280;8055;51.930;8.840;2023-03-03T15:06:44;77422.47;;;-145.72;100.00
15914;BME280;8055;51.930;8.840;2023-03-03T15:09:33;77420.41;;;-145.72;100.00
15914;BME280;8055;51.930;8.840;2023-03-03T15:12:23;77418.34;;;-145.72;100.00
15914;BME280;8055;51.930;8.840;2023-03-03T15:17:42;77418.34;;;-145.72;100.00
15914;BME280;8055;51.930;8.840;2023-03-03T15:20:37;77408.00;;;-145.72;100.00
15914;BME280;8055;51.930;8.840;2023-03-03T15:23:28;77397.63;;;-145.72;100.00
15914;BME280;8055;51.930;8.840;2023-03-03T15:29:01;77389.34;;;-145.72;100.00
15914;BME280;8055;51.930;8.840;2023-03-03T15:31:58;77389.34;;;-145.72;100.00
15914;BME280;8055;51.930;8.840;2023-03-03T15:37:36;77387.28;;;-145.72;100.00
15914;BME280;8055;51.930;8.840;2023-03-03T15:40:23;77393.50;;;-145.72;100.00